Time;durP1;ratioP1;P1;durP2;ratioP2;P2;SDS_P1;SDS_P2;PMS_P1;PMS_P2;Temp;Humidity;BMP_temperature;BMP_pressure;BME280_temperature;BME280_humidity;BME280_pressure;Samples;Min_cycle;Max_cycle;Signal;HPM_P1;HPM_P2
2023/07/20 00:00:41;;;;;;;2.87;1.90;;;;;;;;;;5032854;28;20276;-76
2023/07/20 00:03:16;;;;;;;3.13;2.10;;;;;;;;;;5050051;28;20214;-76
2023/07/20 00:05:43;;;;;;;3.73;2.10;;;;;;;;;;5050250;28;20185;-75
2023/07/20 00:08:09;;;;;;;4.43;2.10;;;;;;;;;;5050371;28;20642;-75
2023/07/20 00:10:35;;;;;;;2.87;2.07;;;;;;;;;;5050483;28;20251;-74
2023/07/20 00:13:01;;;;;;;2.70;2.10;;;;;;;;;;5032207;28;20597;-75
2023/07/20 00:15:27;;;;;;;4.63;2.10;;;;;;;;;;5032544;28;20197;-75
2023/07/20 00:17:53;;;;;;;4.20;2.27;;;;;;;;;;5050264;28;20182;-75
2023/07/20 00:20:20;;;;;;;3.03;2.00;;;;;;;;;;5050266;28;20185;-75
2023/07/20 00:22:46;;;;;;;2.90;2.10;;;;;;;;;;5041536;28;20213;-76
2023/07/20 00:25:12;;;;;;;4.70;2.30;;;;;;;;;;5045543;28;20189;-76
2023/07/20 00:27:38;;;;;;;2.77;2.20;;;;;;;;;;5050154;28;20186;-76
2023/07/20 00:30:05;;;;;;;5.07;2.20;;;;;;;;;;4997701;28;20190;-75
2023/07/20 00:32:31;;;;;;;3.30;2.13;;;;;;;;;;5031779;28;20644;-76
2023/07/20 00:34:57;;;;;;;3.77;2.27;;;;;;;;;;5049555;28;20188;-75
2023/07/20 00:37:24;;;;;;;3.00;2.17;;;;;;;;;;5032335;28;20218;-75
2023/07/20 00:39:51;;;;;;;4.20;2.07;;;;;;;;;;5032543;28;20197;-75
2023/07/20 00:42:18;;;;;;;2.33;2.00;;;;;;;;;;5023471;28;20260;-75
2023/07/20 00:44:44;;;;;;;3.33;2.00;;;;;;;;;;5027378;28;20190;-74
2023/07/20 00:47:11;;;;;;;3.30;2.20;;;;;;;;;;5049650;28;20178;-74
2023/07/20 00:49:37;;;;;;;2.83;2.10;;;;;;;;;;5015327;28;20296;-76
2023/07/20 00:52:04;;;;;;;2.57;2.30;;;;;;;;;;5031612;28;20649;-76
2023/07/20 00:54:30;;;;;;;2.80;2.00;;;;;;;;;;5031115;28;20616;-75
2023/07/20 00:56:57;;;;;;;3.27;2.20;;;;;;;;;;5018892;28;20268;-75
2023/07/20 00:59:24;;;;;;;2.40;1.87;;;;;;;;;;5031929;28;20655;-74
2023/07/20 01:01:50;;;;;;;2.57;2.17;;;;;;;;;;5026983;28;20181;-75
2023/07/20 01:04:16;;;;;;;2.80;2.27;;;;;;;;;;5049515;28;20688;-75
2023/07/20 01:06:47;;;;;;;2.83;2.10;;;;;;;;;;5049214;28;20265;-74
2023/07/20 01:09:17;;;;;;;3.17;2.00;;;;;;;;;;5049450;28;20613;-75
2023/07/20 01:11:55;;;;;;;4.93;2.40;;;;;;;;;;5031410;28;20201;-74
2023/07/20 01:14:22;;;;;;;3.40;2.40;;;;;;;;;;5031664;28;20276;-74
2023/07/20 01:16:49;;;;;;;3.80;2.37;;;;;;;;;;5040991;28;20193;-75
2023/07/20 01:19:16;;;;;;;2.63;1.90;;;;;;;;;;5031471;28;20193;-75
2023/07/20 01:21:48;;;;;;;3.03;2.30;;;;;;;;;;5049225;28;20640;-76
2023/07/20 01:24:17;;;;;;;3.90;2.20;;;;;;;;;;5031433;28;20292;-75
2023/07/20 01:26:49;;;;;;;2.70;2.13;;;;;;;;;;5031177;28;20277;-75
2023/07/20 01:29:16;;;;;;;2.70;2.10;;;;;;;;;;5015088;28;20190;-75
2023/07/20 01:31:42;;;;;;;3.43;2.10;;;;;;;;;;5031204;28;20263;-74
2023/07/20 01:34:11;;;;;;;3.40;2.20;;;;;;;;;;5048981;28;20442;-75
2023/07/20 01:36:38;;;;;;;3.27;2.20;;;;;;;;;;5053166;28;20185;-75
2023/07/20 01:39:05;;;;;;;2.47;2.03;;;;;;;;;;5049734;28;20529;-75
2023/07/20 01:41:31;;;;;;;5.03;2.40;;;;;;;;;;5031336;28;20217;-76
2023/07/20 01:44:00;;;;;;;4.43;2.30;;;;;;;;;;5048725;28;20645;-75
2023/07/20 01:46:26;;;;;;;3.23;2.13;;;;;;;;;;4999221;28;20248;-75
2023/07/20 01:48:54;;;;;;;3.80;2.20;;;;;;;;;;5018894;28;20193;-75
2023/07/20 01:51:21;;;;;;;3.40;2.10;;;;;;;;;;5015205;28;20213;-75
2023/07/20 01:53:48;;;;;;;3.63;2.27;;;;;;;;;;5002147;28;20220;-75
2023/07/20 01:56:14;;;;;;;2.50;2.07;;;;;;;;;;5050120;28;20182;-74
2023/07/20 01:58:41;;;;;;;4.23;2.30;;;;;;;;;;5034835;28;20184;-76
2023/07/20 02:01:07;;;;;;;3.93;2.00;;;;;;;;;;5034604;28;20182;-76
2023/07/20 02:03:33;;;;;;;2.80;2.00;;;;;;;;;;5034723;28;20217;-76
2023/07/20 02:05:59;;;;;;;2.73;2.00;;;;;;;;;;5030663;28;20194;-76
2023/07/20 02:08:26;;;;;;;4.40;1.93;;;;;;;;;;5034923;28;20188;-75
2023/07/20 02:10:55;;;;;;;3.43;2.20;;;;;;;;;;5034692;28;20177;-77
2023/07/20 02:13:21;;;;;;;2.67;1.80;;;;;;;;;;5050000;28;20280;-75
2023/07/20 02:15:49;;;;;;;3.63;2.40;;;;;;;;;;5034138;28;20194;-76
2023/07/20 02:18:15;;;;;;;3.57;2.20;;;;;;;;;;5013982;28;20231;-76
2023/07/20 02:20:42;;;;;;;3.40;2.40;;;;;;;;;;5032046;28;20710;-75
2023/07/20 02:23:08;;;;;;;4.67;2.40;;;;;;;;;;5050185;28;20217;-75
2023/07/20 02:25:34;;;;;;;2.77;2.07;;;;;;;;;;5034018;28;20182;-75
2023/07/20 02:28:00;;;;;;;4.10;2.30;;;;;;;;;;5052751;28;20235;-75
2023/07/20 02:30:27;;;;;;;3.60;2.10;;;;;;;;;;5034551;28;20276;-76
2023/07/20 02:32:53;;;;;;;3.10;2.50;;;;;;;;;;5017701;28;20275;-75
2023/07/20 02:35:20;;;;;;;3.90;2.37;;;;;;;;;;5030073;28;20181;-74
2023/07/20 02:37:46;;;;;;;2.93;2.00;;;;;;;;;;5034277;28;20648;-75
2023/07/20 02:40:12;;;;;;;3.80;2.30;;;;;;;;;;5034120;28;20178;-75
2023/07/20 02:42:38;;;;;;;2.83;2.10;;;;;;;;;;5051021;28;20247;-74
2023/07/20 02:45:05;;;;;;;3.90;2.40;;;;;;;;;;5029771;28;20186;-74
2023/07/20 02:47:32;;;;;;;3.17;2.30;;;;;;;;;;5033246;28;20224;-75
2023/07/20 02:49:58;;;;;;;3.03;2.17;;;;;;;;;;5030517;28;20185;-75
2023/07/20 02:52:24;;;;;;;2.83;2.20;;;;;;;;;;5033591;28;20181;-74
2023/07/20 02:54:50;;;;;;;4.07;2.50;;;;;;;;;;5029935;28;20644;-75
2023/07/20 02:57:16;;;;;;;5.67;2.40;;;;;;;;;;5051585;28;20560;-75
2023/07/20 02:59:43;;;;;;;4.00;2.57;;;;;;;;;;5051935;28;20182;-74
2023/07/20 03:02:09;;;;;;;3.83;2.20;;;;;;;;;;5046634;28;20189;-75
2023/07/20 03:04:37;;;;;;;3.10;2.27;;;;;;;;;;5051838;28;20197;-76
2023/07/20 03:07:05;;;;;;;3.53;2.37;;;;;;;;;;5033471;28;20174;-76
2023/07/20 03:09:31;;;;;;;3.77;2.60;;;;;;;;;;5033825;28;20189;-75
2023/07/20 03:11:57;;;;;;;4.00;2.50;;;;;;;;;;5037372;28;20174;-75
2023/07/20 03:14:24;;;;;;;4.70;2.77;;;;;;;;;;5051490;28;20567;-75
2023/07/20 03:16:50;;;;;;;2.60;2.40;;;;;;;;;;5029207;28;20174;-76
2023/07/20 03:19:16;;;;;;;3.77;2.20;;;;;;;;;;5033284;28;20182;-75
2023/07/20 03:21:43;;;;;;;3.30;2.40;;;;;;;;;;5033364;28;20648;-75
2023/07/20 03:24:09;;;;;;;4.60;2.90;;;;;;;;;;5033226;28;20217;-74
2023/07/20 03:26:36;;;;;;;4.80;2.20;;;;;;;;;;5033288;28;20251;-74
2023/07/20 03:29:02;;;;;;;3.50;2.40;;;;;;;;;;5033280;28;20660;-74
2023/07/20 03:31:29;;;;;;;3.73;2.57;;;;;;;;;;5016714;28;20170;-74
2023/07/20 03:33:55;;;;;;;4.23;2.80;;;;;;;;;;5033346;28;20206;-76
2023/07/20 03:36:22;;;;;;;2.47;1.97;;;;;;;;;;5033270;28;20177;-74
2023/07/20 03:38:48;;;;;;;3.70;2.60;;;;;;;;;;5033442;28;20228;-74
2023/07/20 03:41:16;;;;;;;4.70;2.20;;;;;;;;;;5032993;28;20193;-74
2023/07/20 03:43:42;;;;;;;3.27;2.60;;;;;;;;;;5051001;28;20217;-74
2023/07/20 03:46:08;;;;;;;3.17;2.30;;;;;;;;;;5032994;28;20243;-77
2023/07/20 03:48:35;;;;;;;5.73;2.63;;;;;;;;;;5033476;28;20181;-77
2023/07/20 03:51:01;;;;;;;3.53;2.50;;;;;;;;;;5016853;28;20645;-75
2023/07/20 03:53:27;;;;;;;4.07;2.40;;;;;;;;;;5032838;28;20206;-75
2023/07/20 03:55:54;;;;;;;3.73;2.60;;;;;;;;;;5046697;28;20183;-74
2023/07/20 03:58:21;;;;;;;3.53;2.40;;;;;;;;;;5028740;28;20189;-76
2023/07/20 04:00:48;;;;;;;3.67;2.50;;;;;;;;;;5032882;28;20190;-74
2023/07/20 04:03:15;;;;;;;3.53;2.70;;;;;;;;;;5032383;28;20236;-75
2023/07/20 04:05:42;;;;;;;3.67;2.50;;;;;;;;;;5050506;28;20186;-74
2023/07/20 04:08:08;;;;;;;3.37;2.47;;;;;;;;;;5032654;28;20633;-74
2023/07/20 04:10:34;;;;;;;5.77;2.57;;;;;;;;;;5016332;28;20231;-74
2023/07/20 04:13:01;;;;;;;2.67;2.40;;;;;;;;;;5028301;28;20256;-74
2023/07/20 04:15:27;;;;;;;5.13;2.63;;;;;;;;;;5032204;28;20190;-75
2023/07/20 04:17:53;;;;;;;4.53;2.70;;;;;;;;;;5016347;28;20190;-75
2023/07/20 04:20:19;;;;;;;2.83;2.40;;;;;;;;;;5032310;28;20281;-75
2023/07/20 04:22:46;;;;;;;3.57;2.60;;;;;;;;;;5045668;28;20224;-75
2023/07/20 04:25:14;;;;;;;2.80;2.30;;;;;;;;;;5032119;28;20265;-75
2023/07/20 04:27:40;;;;;;;4.13;2.63;;;;;;;;;;5032362;28;20178;-75
2023/07/20 04:30:08;;;;;;;3.03;2.20;;;;;;;;;;5032196;28;20181;-75
2023/07/20 04:32:34;;;;;;;4.03;2.57;;;;;;;;;;5031948;28;20240;-75
2023/07/20 04:35:02;;;;;;;5.13;2.40;;;;;;;;;;5031994;28;20198;-75
2023/07/20 04:37:30;;;;;;;3.67;2.60;;;;;;;;;;5027847;28;20250;-76
2023/07/20 04:39:56;;;;;;;3.07;2.70;;;;;;;;;;5032200;28;20200;-75
2023/07/20 04:42:22;;;;;;;5.37;2.80;;;;;;;;;;5031857;28;20251;-76
2023/07/20 04:44:48;;;;;;;5.67;2.73;;;;;;;;;;5038599;23;20753;-74
2023/07/20 04:47:14;;;;;;;3.10;2.50;;;;;;;;;;5031622;28;20566;-74
2023/07/20 04:49:42;;;;;;;3.90;2.70;;;;;;;;;;5049686;28;20636;-74
2023/07/20 04:52:08;;;;;;;4.60;2.77;;;;;;;;;;5031498;28;20188;-73
2023/07/20 04:54:34;;;;;;;4.37;2.90;;;;;;;;;;5023957;28;20276;-73
2023/07/20 04:57:01;;;;;;;2.80;2.27;;;;;;;;;;4981962;28;20189;-74
2023/07/20 04:59:27;;;;;;;3.27;2.30;;;;;;;;;;5021309;28;20187;-74
2023/07/20 05:01:53;;;;;;;3.60;2.50;;;;;;;;;;5041387;28;20193;-73
2023/07/20 05:04:20;;;;;;;3.77;2.80;;;;;;;;;;5015930;28;20553;-74
2023/07/20 05:06:46;;;;;;;6.67;2.70;;;;;;;;;;5015845;28;20774;-74
2023/07/20 05:09:12;;;;;;;3.80;2.70;;;;;;;;;;5019969;28;20201;-73
2023/07/20 05:11:38;;;;;;;3.07;2.47;;;;;;;;;;5015846;28;20244;-74
2023/07/20 05:14:04;;;;;;;2.83;2.50;;;;;;;;;;5033319;28;20194;-74
2023/07/20 05:16:31;;;;;;;3.83;2.63;;;;;;;;;;5015317;28;20190;-74
2023/07/20 05:19:02;;;;;;;4.73;2.63;;;;;;;;;;5013143;28;20182;-74
2023/07/20 05:21:28;;;;;;;3.77;2.90;;;;;;;;;;5034015;28;20194;-74
2023/07/20 05:23:54;;;;;;;3.43;2.40;;;;;;;;;;5021523;28;20232;-74
2023/07/20 05:26:20;;;;;;;3.37;2.87;;;;;;;;;;5032893;28;20171;-74
2023/07/20 05:28:46;;;;;;;3.80;2.60;;;;;;;;;;5033419;28;20182;-74
2023/07/20 05:31:12;;;;;;;4.13;2.83;;;;;;;;;;5034998;28;20187;-75
2023/07/20 05:33:39;;;;;;;5.10;3.10;;;;;;;;;;5027488;28;20222;-77
2023/07/20 05:36:05;;;;;;;3.13;2.43;;;;;;;;;;5031495;28;20275;-75
2023/07/20 05:38:31;;;;;;;4.70;3.00;;;;;;;;;;5010791;28;20195;-76
2023/07/20 05:41:01;;;;;;;3.67;2.40;;;;;;;;;;5029845;28;20190;-78
2023/07/20 05:43:27;;;;;;;3.87;2.67;;;;;;;;;;5009655;28;20255;-75
2023/07/20 05:45:53;;;;;;;3.00;2.50;;;;;;;;;;4998741;28;20268;-75
2023/07/20 05:48:19;;;;;;;5.70;2.70;;;;;;;;;;5006762;28;20554;-77
2023/07/20 05:50:46;;;;;;;4.97;2.50;;;;;;;;;;5028035;28;20182;-78
2023/07/20 05:53:12;;;;;;;3.60;2.80;;;;;;;;;;5027700;28;20729;-77
2023/07/20 05:55:39;;;;;;;3.80;2.43;;;;;;;;;;5025650;28;20195;-77
2023/07/20 05:58:06;;;;;;;4.13;2.80;;;;;;;;;;5010437;28;20195;-79
2023/07/20 06:00:32;;;;;;;5.97;2.73;;;;;;;;;;5026860;28;20200;-76
2023/07/20 06:02:58;;;;;;;3.63;2.57;;;;;;;;;;5028033;28;20229;-77
2023/07/20 06:05:24;;;;;;;3.30;2.60;;;;;;;;;;5026999;28;20269;-76
2023/07/20 06:07:50;;;;;;;3.23;2.60;;;;;;;;;;5027610;28;20729;-77
2023/07/20 06:10:17;;;;;;;3.93;2.67;;;;;;;;;;5009073;28;20187;-77
2023/07/20 06:12:43;;;;;;;7.97;2.97;;;;;;;;;;5028403;28;20597;-77
2023/07/20 06:15:30;;;;;;;4.77;3.07;;;;;;;;;;5010432;28;20665;-76
2023/07/20 06:17:57;;;;;;;5.00;2.70;;;;;;;;;;5025653;28;20187;-76
2023/07/20 06:20:24;;;;;;;5.07;2.80;;;;;;;;;;5015261;28;20305;-76
2023/07/20 06:22:50;;;;;;;3.83;2.90;;;;;;;;;;5031396;28;20213;-76
2023/07/20 06:25:16;;;;;;;4.43;2.77;;;;;;;;;;5040644;28;20190;-76
2023/07/20 06:27:43;;;;;;;3.23;2.50;;;;;;;;;;5003942;28;20191;-76
2023/07/20 06:30:09;;;;;;;5.40;2.83;;;;;;;;;;5014248;28;20215;-76
2023/07/20 06:32:36;;;;;;;3.43;2.70;;;;;;;;;;5019414;28;20658;-76
2023/07/20 06:35:02;;;;;;;3.90;2.43;;;;;;;;;;5031052;28;20218;-76
2023/07/20 06:37:28;;;;;;;4.80;2.80;;;;;;;;;;5015197;28;20273;-76
2023/07/20 06:39:54;;;;;;;3.83;2.73;;;;;;;;;;5040382;28;20182;-75
2023/07/20 06:42:20;;;;;;;4.10;2.90;;;;;;;;;;5035511;28;20218;-76
2023/07/20 06:44:46;;;;;;;4.33;3.00;;;;;;;;;;5040458;28;20221;-76
2023/07/20 06:47:12;;;;;;;5.07;2.77;;;;;;;;;;5036558;28;20261;-76
2023/07/20 06:49:38;;;;;;;4.83;3.23;;;;;;;;;;5039088;28;20242;-78
2023/07/20 06:52:05;;;;;;;3.50;2.63;;;;;;;;;;5032954;28;20174;-77
2023/07/20 06:54:31;;;;;;;3.50;2.87;;;;;;;;;;5042008;28;20202;-77
2023/07/20 06:56:57;;;;;;;6.10;2.80;;;;;;;;;;5022241;28;20528;-77
2023/07/20 06:59:24;;;;;;;5.37;2.70;;;;;;;;;;5036586;28;20185;-77
2023/07/20 07:01:50;;;;;;;5.17;3.13;;;;;;;;;;5030965;28;20555;-77
2023/07/20 07:04:16;;;;;;;3.60;2.70;;;;;;;;;;5036869;28;20214;-77
2023/07/20 07:06:43;;;;;;;3.30;2.80;;;;;;;;;;5038684;28;20769;-77
2023/07/20 07:09:09;;;;;;;5.03;2.73;;;;;;;;;;5015850;28;20189;-77
2023/07/20 07:11:35;;;;;;;4.17;2.97;;;;;;;;;;5037509;28;20387;-77
2023/07/20 07:14:01;;;;;;;4.33;3.00;;;;;;;;;;5021453;28;20708;-77
2023/07/20 07:16:27;;;;;;;5.60;2.57;;;;;;;;;;5040427;28;20258;-77
2023/07/20 07:18:53;;;;;;;4.27;2.70;;;;;;;;;;5036215;28;20178;-77
2023/07/20 07:21:19;;;;;;;3.10;2.47;;;;;;;;;;5031885;28;20194;-77
2023/07/20 07:23:47;;;;;;;3.90;2.63;;;;;;;;;;5038523;28;20248;-76
2023/07/20 07:26:13;;;;;;;3.47;2.77;;;;;;;;;;5002886;28;20628;-77
2023/07/20 07:28:39;;;;;;;6.60;2.80;;;;;;;;;;5020295;28;20182;-77
2023/07/20 07:31:05;;;;;;;3.73;2.77;;;;;;;;;;5042622;28;20228;-77
2023/07/20 07:33:32;;;;;;;3.97;2.60;;;;;;;;;;5030645;28;20831;-77
2023/07/20 07:35:58;;;;;;;5.70;2.80;;;;;;;;;;5035819;28;20190;-77
2023/07/20 07:38:24;;;;;;;4.13;2.60;;;;;;;;;;5002252;28;20228;-77
2023/07/20 07:40:50;;;;;;;4.87;2.47;;;;;;;;;;5031681;28;20183;-77
2023/07/20 07:43:16;;;;;;;3.40;2.30;;;;;;;;;;5030636;28;20229;-77
2023/07/20 07:45:43;;;;;;;4.00;2.60;;;;;;;;;;5015945;28;20676;-77
2023/07/20 07:48:11;;;;;;;5.47;2.93;;;;;;;;;;5032941;28;20181;-77
2023/07/20 07:50:38;;;;;;;6.30;3.00;;;;;;;;;;5020116;28;20646;-77
2023/07/20 07:53:04;;;;;;;6.37;3.33;;;;;;;;;;5038028;28;20217;-77
2023/07/20 07:55:30;;;;;;;6.13;2.90;;;;;;;;;;5002057;28;20281;-77
2023/07/20 07:57:56;;;;;;;5.50;2.47;;;;;;;;;;5021706;28;20197;-77
2023/07/20 08:00:22;;;;;;;5.13;2.53;;;;;;;;;;5013543;28;20631;-77
2023/07/20 08:02:50;;;;;;;7.33;2.60;;;;;;;;;;5016317;28;20520;-77
2023/07/20 08:05:16;;;;;;;3.83;2.00;;;;;;;;;;5036103;28;20188;-78
2023/07/20 08:07:43;;;;;;;6.43;2.37;;;;;;;;;;5025326;28;20179;-77
2023/07/20 08:10:09;;;;;;;3.03;2.10;;;;;;;;;;5042539;28;20272;-78
2023/07/20 08:12:35;;;;;;;4.83;2.40;;;;;;;;;;5020011;28;20195;-78
2023/07/20 08:15:02;;;;;;;4.60;2.50;;;;;;;;;;5033590;28;20560;-78
2023/07/20 08:17:28;;;;;;;4.27;2.17;;;;;;;;;;5019071;28;20707;-78
2023/07/20 08:19:54;;;;;;;3.57;2.07;;;;;;;;;;5005273;28;20193;-77
2023/07/20 08:22:20;;;;;;;4.00;2.40;;;;;;;;;;5039938;28;20704;-78
2023/07/20 08:24:46;;;;;;;3.47;1.80;;;;;;;;;;5001369;28;20537;-78
2023/07/20 08:27:13;;;;;;;6.90;2.20;;;;;;;;;;5039739;28;20177;-78
2023/07/20 08:29:39;;;;;;;2.37;1.80;;;;;;;;;;5014158;28;20182;-78
2023/07/20 08:32:06;;;;;;;3.97;2.10;;;;;;;;;;5030279;28;20321;-78
2023/07/20 08:34:32;;;;;;;2.60;1.90;;;;;;;;;;5018573;28;20831;-78
2023/07/20 08:36:59;;;;;;;3.87;1.90;;;;;;;;;;5037908;28;20269;-78
2023/07/20 08:39:25;;;;;;;2.70;1.80;;;;;;;;;;5021945;28;20824;-78
2023/07/20 08:41:54;;;;;;;3.80;2.20;;;;;;;;;;5030039;28;20177;-77
2023/07/20 08:44:20;;;;;;;2.63;2.10;;;;;;;;;;5033882;28;20846;-77
2023/07/20 08:46:48;;;;;;;2.97;2.40;;;;;;;;;;5034592;28;20194;-78
2023/07/20 08:49:15;;;;;;;3.47;2.07;;;;;;;;;;5021717;28;20667;-78
2023/07/20 08:51:42;;;;;;;4.13;2.20;;;;;;;;;;5036874;28;20192;-78
2023/07/20 08:54:10;;;;;;;5.70;2.57;;;;;;;;;;4998157;28;20202;-78
2023/07/20 08:56:37;;;;;;;3.80;2.23;;;;;;;;;;5017264;28;20663;-78
2023/07/20 08:59:04;;;;;;;2.10;1.87;;;;;;;;;;5034796;28;20190;-77
2023/07/20 09:01:30;;;;;;;3.13;1.80;;;;;;;;;;5022400;28;20190;-78
2023/07/20 09:03:57;;;;;;;3.93;1.63;;;;;;;;;;5020225;28;20210;-77
2023/07/20 09:06:24;;;;;;;3.27;2.00;;;;;;;;;;5013524;28;20265;-78
2023/07/20 09:08:50;;;;;;;2.07;1.70;;;;;;;;;;5033551;28;20272;-78
2023/07/20 09:11:17;;;;;;;4.20;2.00;;;;;;;;;;5040121;28;20287;-78
2023/07/20 09:13:43;;;;;;;3.80;2.10;;;;;;;;;;5016860;28;20768;-78
2023/07/20 09:16:09;;;;;;;3.70;1.90;;;;;;;;;;5034450;28;20645;-78
2023/07/20 09:18:36;;;;;;;3.30;2.10;;;;;;;;;;5023219;28;20738;-78
2023/07/20 09:21:03;;;;;;;2.93;1.77;;;;;;;;;;5019854;28;20232;-78
2023/07/20 09:23:36;;;;;;;4.87;1.73;;;;;;;;;;5016638;28;20808;-78
2023/07/20 09:26:13;;;;;;;4.40;2.17;;;;;;;;;;5005172;28;20243;-78
2023/07/20 09:28:57;;;;;;;2.73;2.17;;;;;;;;;;5039372;28;20174;-78
2023/07/20 09:31:24;;;;;;;5.70;2.10;;;;;;;;;;5031260;28;20174;-78
2023/07/20 09:33:52;;;;;;;4.03;1.77;;;;;;;;;;5029586;28;20700;-78
2023/07/20 09:36:18;;;;;;;3.43;2.27;;;;;;;;;;5038622;28;20185;-78
2023/07/20 09:38:44;;;;;;;4.03;2.20;;;;;;;;;;5029768;28;20219;-78
2023/07/20 09:41:15;;;;;;;3.10;2.07;;;;;;;;;;5039062;28;20235;-78
2023/07/20 09:43:41;;;;;;;3.87;2.00;;;;;;;;;;5034147;28;20229;-78
2023/07/20 09:46:07;;;;;;;2.57;1.80;;;;;;;;;;4995211;28;20231;-78
2023/07/20 09:48:34;;;;;;;3.77;1.80;;;;;;;;;;5029717;28;20187;-78
2023/07/20 09:51:01;;;;;;;2.37;1.80;;;;;;;;;;5034452;28;20211;-78
2023/07/20 09:53:28;;;;;;;7.90;2.30;;;;;;;;;;5034092;28;20658;-78
2023/07/20 09:55:54;;;;;;;3.20;2.00;;;;;;;;;;5039967;28;20217;-78
2023/07/20 09:58:20;;;;;;;3.50;2.00;;;;;;;;;;5028228;28;20198;-78
2023/07/20 10:00:50;;;;;;;2.10;1.80;;;;;;;;;;5044885;28;20209;-78
2023/07/20 10:03:21;;;;;;;3.33;1.93;;;;;;;;;;5024305;28;20244;-78
2023/07/20 10:05:49;;;;;;;2.73;1.80;;;;;;;;;;5039103;28;20685;-78
2023/07/20 10:08:17;;;;;;;3.93;2.00;;;;;;;;;;5039128;28;20179;-78
2023/07/20 10:10:44;;;;;;;2.77;1.77;;;;;;;;;;5038824;28;20240;-78
2023/07/20 10:13:13;;;;;;;2.93;1.90;;;;;;;;;;5039587;28;20224;-78
2023/07/20 10:15:47;;;;;;;4.03;1.93;;;;;;;;;;5041018;28;20191;-78
2023/07/20 10:18:17;;;;;;;2.10;1.70;;;;;;;;;;5036158;28;20182;-77
2023/07/20 10:20:44;;;;;;;3.60;1.90;;;;;;;;;;5021886;28;20311;-76
2023/07/20 10:23:11;;;;;;;2.77;1.70;;;;;;;;;;4994193;28;20297;-77
2023/07/20 10:25:38;;;;;;;2.10;1.67;;;;;;;;;;5037149;28;20598;-76
2023/07/20 10:28:07;;;;;;;2.70;1.87;;;;;;;;;;5038237;28;20233;-76
2023/07/20 10:30:35;;;;;;;3.17;2.10;;;;;;;;;;5043247;28;20266;-75
2023/07/20 10:33:03;;;;;;;3.10;1.93;;;;;;;;;;5044268;28;20657;-75
2023/07/20 10:35:29;;;;;;;2.73;1.80;;;;;;;;;;5035314;28;20208;-75
2023/07/20 10:38:00;;;;;;;4.03;1.90;;;;;;;;;;5041512;28;20192;-75
2023/07/20 10:40:34;;;;;;;2.13;1.70;;;;;;;;;;5035142;28;20190;-76
2023/07/20 10:43:01;;;;;;;2.57;2.00;;;;;;;;;;5018645;28;20209;-75
2023/07/20 10:45:39;;;;;;;2.80;2.00;;;;;;;;;;5084275;22;20582;-75
2023/07/20 10:48:20;;;;;;;3.27;1.80;;;;;;;;;;5072637;28;20188;-75
2023/07/20 10:51:06;;;;;;;2.37;1.50;;;;;;;;;;5053712;28;20189;-75
2023/07/20 10:53:33;;;;;;;2.23;1.60;;;;;;;;;;5069938;28;20203;-83
2023/07/20 10:56:09;;;;;;;3.37;1.70;;;;;;;;;;5055660;28;20229;-77
2023/07/20 10:58:35;;;;;;;3.80;1.90;;;;;;;;;;5039355;28;20194;-77
2023/07/20 11:01:03;;;;;;;3.00;1.60;;;;;;;;;;5070136;28;20833;-76
2023/07/20 11:03:33;;;;;;;3.67;1.60;;;;;;;;;;5071619;28;20238;-75
2023/07/20 11:06:00;;;;;;;3.77;1.80;;;;;;;;;;5051069;28;20185;-75
2023/07/20 11:08:42;;;;;;;3.47;2.00;;;;;;;;;;5049887;28;20635;-77
2023/07/20 11:11:23;;;;;;;3.03;1.80;;;;;;;;;;5066025;28;20181;-78
2023/07/20 11:13:56;;;;;;;2.10;1.90;;;;;;;;;;5032777;28;20221;-77
2023/07/20 11:16:33;;;;;;;2.03;1.60;;;;;;;;;;5053526;28;20185;-77
2023/07/20 11:18:59;;;;;;;2.53;1.80;;;;;;;;;;5068194;28;20219;-77
2023/07/20 11:21:26;;;;;;;2.83;1.90;;;;;;;;;;5054125;28;20189;-71
2023/07/20 11:23:56;;;;;;;2.50;1.87;;;;;;;;;;5071314;28;20712;-72
2023/07/20 11:26:22;;;;;;;1.73;1.60;;;;;;;;;;5054243;28;20203;-78
2023/07/20 11:28:52;;;;;;;2.93;1.47;;;;;;;;;;5072557;28;20930;-76
2023/07/20 11:31:21;;;;;;;2.53;1.73;;;;;;;;;;5054327;28;20566;-76
2023/07/20 11:33:47;;;;;;;1.97;1.67;;;;;;;;;;5067115;28;20714;-78
2023/07/20 11:36:13;;;;;;;2.53;1.77;;;;;;;;;;5072767;28;20585;-78
2023/07/20 11:38:43;;;;;;;2.90;1.60;;;;;;;;;;5054720;28;20189;-79
2023/07/20 11:41:10;;;;;;;2.33;1.57;;;;;;;;;;5071602;28;20200;-78
2023/07/20 11:43:37;;;;;;;1.90;1.60;;;;;;;;;;5070730;28;20307;-79
2023/07/20 11:46:05;;;;;;;1.90;1.50;;;;;;;;;;5070638;28;20199;-79
2023/07/20 11:48:31;;;;;;;2.20;1.60;;;;;;;;;;5053646;28;20178;-78
2023/07/20 11:50:57;;;;;;;2.03;1.63;;;;;;;;;;5050083;28;20193;-78
2023/07/20 11:53:25;;;;;;;1.93;1.60;;;;;;;;;;5070856;28;20181;-78
2023/07/20 11:55:51;;;;;;;1.87;1.60;;;;;;;;;;5065896;28;20178;-78
2023/07/20 11:58:18;;;;;;;2.40;1.70;;;;;;;;;;5066162;28;20191;-78
2023/07/20 12:00:45;;;;;;;2.70;1.50;;;;;;;;;;5053580;28;20242;-79
2023/07/20 12:03:12;;;;;;;2.53;1.60;;;;;;;;;;5065443;28;20212;-78
2023/07/20 12:05:39;;;;;;;2.77;1.77;;;;;;;;;;5068586;28;20209;-78
2023/07/20 12:08:05;;;;;;;5.30;1.70;;;;;;;;;;5048985;28;20181;-78
2023/07/20 12:10:31;;;;;;;2.03;1.47;;;;;;;;;;5053081;28;20181;-78
2023/07/20 12:13:04;;;;;;;1.93;1.40;;;;;;;;;;5048125;28;20192;-78
2023/07/20 12:15:31;;;;;;;1.73;1.50;;;;;;;;;;5064797;28;20263;-79
2023/07/20 12:17:59;;;;;;;2.27;1.40;;;;;;;;;;5065796;28;20254;-78
2023/07/20 12:20:32;;;;;;;2.70;1.40;;;;;;;;;;5066980;28;20228;-78
2023/07/20 12:23:14;;;;;;;2.10;1.73;;;;;;;;;;5066537;28;20862;-78
2023/07/20 12:25:41;;;;;;;2.00;1.53;;;;;;;;;;5048930;28;20204;-77
2023/07/20 12:28:08;;;;;;;2.13;1.57;;;;;;;;;;5067262;28;20197;-78
2023/07/20 12:30:34;;;;;;;2.10;1.70;;;;;;;;;;5065806;28;20250;-78
2023/07/20 12:33:00;;;;;;;3.90;1.70;;;;;;;;;;5047048;28;20652;-79
2023/07/20 12:35:26;;;;;;;3.03;1.57;;;;;;;;;;5065270;28;20196;-79
2023/07/20 12:37:53;;;;;;;2.00;1.50;;;;;;;;;;5049113;28;20295;-79
2023/07/20 12:40:19;;;;;;;3.90;1.67;;;;;;;;;;5038602;28;20272;-79
2023/07/20 12:42:45;;;;;;;1.50;1.37;;;;;;;;;;5065013;28;20243;-78
2023/07/20 12:45:13;;;;;;;2.47;1.67;;;;;;;;;;5051599;28;20258;-78
2023/07/20 12:47:40;;;;;;;2.33;1.53;;;;;;;;;;5069859;28;20196;-76
2023/07/20 12:50:07;;;;;;;2.00;1.67;;;;;;;;;;5070750;28;20178;-75
2023/07/20 12:52:37;;;;;;;2.43;1.70;;;;;;;;;;5051148;28;20253;-76
2023/07/20 12:55:03;;;;;;;1.90;1.50;;;;;;;;;;5066813;28;20282;-77
2023/07/20 12:57:29;;;;;;;1.53;1.43;;;;;;;;;;5070548;28;20677;-76
2023/07/20 12:59:55;;;;;;;1.63;1.53;;;;;;;;;;5069814;28;20177;-77
2023/07/20 13:02:21;;;;;;;2.47;1.60;;;;;;;;;;5069109;28;20272;-77
2023/07/20 13:04:47;;;;;;;2.37;1.60;;;;;;;;;;5069582;28;20218;-77
2023/07/20 13:07:14;;;;;;;2.30;1.60;;;;;;;;;;5069427;28;20276;-76
2023/07/20 13:09:40;;;;;;;2.17;1.33;;;;;;;;;;5067464;28;20233;-76
2023/07/20 13:12:06;;;;;;;2.90;1.47;;;;;;;;;;5034725;28;20205;-77
2023/07/20 13:14:32;;;;;;;2.93;1.77;;;;;;;;;;5051578;28;20208;-77
2023/07/20 13:16:58;;;;;;;3.67;1.60;;;;;;;;;;5051666;28;20188;-78
2023/07/20 13:19:25;;;;;;;4.80;1.70;;;;;;;;;;5051764;28;20185;-78
2023/07/20 13:21:51;;;;;;;1.80;1.30;;;;;;;;;;5070072;28;20523;-78
2023/07/20 13:24:17;;;;;;;1.87;1.40;;;;;;;;;;5064206;28;20216;-79
2023/07/20 13:26:43;;;;;;;3.23;1.80;;;;;;;;;;5067060;28;20195;-79
2023/07/20 13:29:09;;;;;;;3.03;1.67;;;;;;;;;;5067430;28;20616;-78
2023/07/20 13:31:36;;;;;;;1.73;1.50;;;;;;;;;;5054383;28;20188;-79
2023/07/20 13:34:02;;;;;;;1.73;1.57;;;;;;;;;;5073352;28;20255;-78
2023/07/20 13:36:28;;;;;;;2.43;1.40;;;;;;;;;;5039666;28;20247;-79
2023/07/20 13:38:54;;;;;;;2.57;1.60;;;;;;;;;;5073890;28;20189;-79
2023/07/20 13:41:20;;;;;;;3.03;1.70;;;;;;;;;;5073718;28;20268;-78
2023/07/20 13:43:46;;;;;;;4.13;1.80;;;;;;;;;;5038588;28;20209;-78
2023/07/20 13:46:12;;;;;;;2.27;1.50;;;;;;;;;;5073299;28;20196;-78
2023/07/20 13:48:38;;;;;;;2.47;1.53;;;;;;;;;;5055791;28;20572;-78
2023/07/20 13:51:05;;;;;;;3.63;1.40;;;;;;;;;;5073561;28;20169;-78
2023/07/20 13:53:31;;;;;;;3.47;1.70;;;;;;;;;;5055832;28;20188;-78
2023/07/20 13:55:58;;;;;;;1.80;1.70;;;;;;;;;;5072652;28;20538;-78
2023/07/20 13:58:25;;;;;;;2.73;1.63;;;;;;;;;;5056357;28;20265;-78
2023/07/20 14:00:51;;;;;;;4.00;1.70;;;;;;;;;;5050845;28;20266;-78
2023/07/20 14:03:17;;;;;;;2.77;1.70;;;;;;;;;;5072529;28;20273;-79
2023/07/20 14:05:43;;;;;;;3.43;1.80;;;;;;;;;;5072591;28;20279;-78
2023/07/20 14:08:10;;;;;;;3.33;1.60;;;;;;;;;;5072778;28;20213;-78
2023/07/20 14:10:36;;;;;;;2.13;1.67;;;;;;;;;;5072820;28;20177;-78
2023/07/20 14:13:02;;;;;;;3.67;1.53;;;;;;;;;;5072423;28;20582;-78
2023/07/20 14:15:28;;;;;;;2.80;1.80;;;;;;;;;;5072345;28;20204;-78
2023/07/20 14:17:54;;;;;;;1.77;1.50;;;;;;;;;;5067661;28;20184;-78
2023/07/20 14:20:20;;;;;;;2.17;1.57;;;;;;;;;;5072781;28;20188;-78
2023/07/20 14:22:47;;;;;;;3.20;1.77;;;;;;;;;;5067316;28;20262;-78
2023/07/20 14:25:13;;;;;;;2.60;1.70;;;;;;;;;;5072310;28;20220;-78
2023/07/20 14:27:40;;;;;;;9.47;1.70;;;;;;;;;;5072602;28;20272;-78
2023/07/20 14:30:06;;;;;;;2.30;1.40;;;;;;;;;;5072635;28;20179;-76
2023/07/20 14:32:33;;;;;;;2.87;1.93;;;;;;;;;;5072346;28;20701;-76
2023/07/20 14:34:59;;;;;;;2.60;1.70;;;;;;;;;;5072392;28;20579;-77
2023/07/20 14:37:25;;;;;;;4.10;1.53;;;;;;;;;;5072410;28;20190;-77
2023/07/20 14:39:52;;;;;;;2.20;1.70;;;;;;;;;;5072676;28;20664;-77
2023/07/20 14:42:18;;;;;;;2.10;1.80;;;;;;;;;;5047873;28;20189;-77